sensor_id;sensor_type;location;lat;lon;timestamp;temperature;humidity
23534;DHT22;11944;50.796;4.322;2022-09-09T00:03:55;14.90;99.90
23534;DHT22;11944;50.796;4.322;2022-09-09T00:06:28;14.90;99.90
23534;DHT22;11944;50.796;4.322;2022-09-09T00:11:43;14.90;99.90
23534;DHT22;11944;50.796;4.322;2022-09-09T00:14:30;14.90;99.90
23534;DHT22;11944;50.796;4.322;2022-09-09T00:16:59;14.90;99.90
23534;DHT22;11944;50.796;4.322;2022-09-09T00:22:18;14.90;99.90
23534;DHT22;11944;50.796;4.322;2022-09-09T00:24:54;14.80;99.90
23534;DHT22;11944;50.796;4.322;2022-09-09T00:30:14;14.80;99.90
23534;DHT22;11944;50.796;4.322;2022-09-09T00:32:45;14.90;99.90
23534;DHT22;11944;50.796;4.322;2022-09-09T00:35:36;15.00;99.90
23534;DHT22;11944;50.796;4.322;2022-09-09T00:38:10;15.00;99.90
23534;DHT22;11944;50.796;4.322;2022-09-09T00:40:50;14.90;99.90
23534;DHT22;11944;50.796;4.322;2022-09-09T00:43:35;15.00;99.90
23534;DHT22;11944;50.796;4.322;2022-09-09T00:46:14;15.00;99.90
23534;DHT22;11944;50.796;4.322;2022-09-09T00:54:39;15.00;99.90
23534;DHT22;11944;50.796;4.322;2022-09-09T00:57:11;15.10;99.90
23534;DHT22;11944;50.796;4.322;2022-09-09T00:59:52;15.20;99.90
23534;DHT22;11944;50.796;4.322;2022-09-09T01:02:35;15.20;99.90
23534;DHT22;11944;50.796;4.322;2022-09-09T01:05:07;15.20;99.90
23534;DHT22;11944;50.796;4.322;2022-09-09T01:07:30;15.20;99.90
23534;DHT22;11944;50.796;4.322;2022-09-09T01:10:01;15.10;99.90
23534;DHT22;11944;50.796;4.322;2022-09-09T01:12:43;15.10;99.90
23534;DHT22;11944;50.796;4.322;2022-09-09T01:15:23;15.10;99.90
23534;DHT22;11944;50.796;4.322;2022-09-09T01:18:08;15.20;99.90
23534;DHT22;11944;50.796;4.322;2022-09-09T01:24:01;15.10;99.90
23534;DHT22;11944;50.796;4.322;2022-09-09T01:26:41;15.10;99.90
23534;DHT22;11944;50.796;4.322;2022-09-09T01:29:12;15.10;99.90
23534;DHT22;11944;50.796;4.322;2022-09-09T01:31:51;15.10;99.90
23534;DHT22;11944;50.796;4.322;2022-09-09T01:34:14;15.10;99.90
23534;DHT22;11944;50.796;4.322;2022-09-09T01:36:53;15.00;99.90
23534;DHT22;11944;50.796;4.322;2022-09-09T01:39:19;15.00;99.90
23534;DHT22;11944;50.796;4.322;2022-09-09T01:41:47;15.10;99.90
23534;DHT22;11944;50.796;4.322;2022-09-09T01:44:15;15.10;99.90
23534;DHT22;11944;50.796;4.322;2022-09-09T01:46:44;15.00;99.90
23534;DHT22;11944;50.796;4.322;2022-09-09T01:49:12;15.00;99.90
23534;DHT22;11944;50.796;4.322;2022-09-09T01:51:43;15.00;99.90
23534;DHT22;11944;50.796;4.322;2022-09-09T01:54:11;15.00;99.90
23534;DHT22;11944;50.796;4.322;2022-09-09T02:02:10;15.00;99.90
23534;DHT22;11944;50.796;4.322;2022-09-09T02:04:50;15.00;99.90
23534;DHT22;11944;50.796;4.322;2022-09-09T02:12:53;15.00;99.90
23534;DHT22;11944;50.796;4.322;2022-09-09T02:15:24;15.00;99.90
23534;DHT22;11944;50.796;4.322;2022-09-09T02:17:50;15.00;99.90
23534;DHT22;11944;50.796;4.322;2022-09-09T02:20:19;15.10;99.90
23534;DHT22;11944;50.796;4.322;2022-09-09T02:22:49;15.10;99.90
23534;DHT22;11944;50.796;4.322;2022-09-09T02:25:19;15.00;99.90
23534;DHT22;11944;50.796;4.322;2022-09-09T02:27:50;15.00;99.90
23534;DHT22;11944;50.796;4.322;2022-09-09T02:30:19;15.10;99.90
23534;DHT22;11944;50.796;4.322;2022-09-09T02:32:48;15.10;99.90
23534;DHT22;11944;50.796;4.322;2022-09-09T02:35:20;15.10;99.90
23534;DHT22;11944;50.796;4.322;2022-09-09T02:37:49;15.10;99.90
23534;DHT22;11944;50.796;4.322;2022-09-09T02:40:18;15.00;99.90
23534;DHT22;11944;50.796;4.322;2022-09-09T02:42:48;15.10;99.90
23534;DHT22;11944;50.796;4.322;2022-09-09T02:45:18;15.10;99.90
23534;DHT22;11944;50.796;4.322;2022-09-09T02:48:11;15.00;99.90
23534;DHT22;11944;50.796;4.322;2022-09-09T02:50:52;15.10;99.90
23534;DHT22;11944;50.796;4.322;2022-09-09T02:53:23;15.10;99.90
23534;DHT22;11944;50.796;4.322;2022-09-09T02:56:07;15.00;99.90
23534;DHT22;11944;50.796;4.322;2022-09-09T02:58:31;15.00;99.90
23534;DHT22;11944;50.796;4.322;2022-09-09T03:01:00;14.90;99.90
23534;DHT22;11944;50.796;4.322;2022-09-09T03:03:29;15.00;99.90
23534;DHT22;11944;50.796;4.322;2022-09-09T03:05:57;14.90;99.90
23534;DHT22;11944;50.796;4.322;2022-09-09T03:08:24;14.90;99.90
23534;DHT22;11944;50.796;4.322;2022-09-09T03:10:58;14.90;99.90
23534;DHT22;11944;50.796;4.322;2022-09-09T03:13:28;15.00;99.90
23534;DHT22;11944;50.796;4.322;2022-09-09T03:15:56;15.00;99.90
23534;DHT22;11944;50.796;4.322;2022-09-09T03:18:23;15.00;99.90
23534;DHT22;11944;50.796;4.322;2022-09-09T03:20:51;15.00;99.90
23534;DHT22;11944;50.796;4.322;2022-09-09T03:23:20;15.00;99.90
23534;DHT22;11944;50.796;4.322;2022-09-09T03:25:53;15.00;99.90
23534;DHT22;11944;50.796;4.322;2022-09-09T03:28:18;14.90;99.90
23534;DHT22;11944;50.796;4.322;2022-09-09T03:30:47;14.90;99.90
23534;DHT22;11944;50.796;4.322;2022-09-09T03:33:14;14.90;99.90
23534;DHT22;11944;50.796;4.322;2022-09-09T03:35:46;14.90;99.90
23534;DHT22;11944;50.796;4.322;2022-09-09T03:38:17;14.90;99.90
23534;DHT22;11944;50.796;4.322;2022-09-09T03:40:53;14.90;99.90
23534;DHT22;11944;50.796;4.322;2022-09-09T03:46:04;14.80;99.90
23534;DHT22;11944;50.796;4.322;2022-09-09T03:48:32;14.90;99.90
23534;DHT22;11944;50.796;4.322;2022-09-09T03:51:00;14.90;99.90
23534;DHT22;11944;50.796;4.322;2022-09-09T03:53:29;14.90;99.90
23534;DHT22;11944;50.796;4.322;2022-09-09T03:55:57;15.00;99.90
23534;DHT22;11944;50.796;4.322;2022-09-09T03:58:26;15.00;99.90
23534;DHT22;11944;50.796;4.322;2022-09-09T04:00:59;15.10;99.90
23534;DHT22;11944;50.796;4.322;2022-09-09T04:03:27;15.10;99.90
23534;DHT22;11944;50.796;4.322;2022-09-09T04:05:57;15.10;99.90
23534;DHT22;11944;50.796;4.322;2022-09-09T04:08:25;15.20;99.90
23534;DHT22;11944;50.796;4.322;2022-09-09T04:10:53;15.10;99.90
23534;DHT22;11944;50.796;4.322;2022-09-09T04:13:23;15.20;99.90
23534;DHT22;11944;50.796;4.322;2022-09-09T04:15:56;15.20;99.90
23534;DHT22;11944;50.796;4.322;2022-09-09T04:18:24;15.20;99.90
23534;DHT22;11944;50.796;4.322;2022-09-09T04:20:53;15.20;99.90
23534;DHT22;11944;50.796;4.322;2022-09-09T04:23:23;15.10;99.90
23534;DHT22;11944;50.796;4.322;2022-09-09T04:25:53;15.10;99.90
23534;DHT22;11944;50.796;4.322;2022-09-09T04:28:23;15.00;99.90
23534;DHT22;11944;50.796;4.322;2022-09-09T04:30:51;15.00;99.90
23534;DHT22;11944;50.796;4.322;2022-09-09T04:33:19;15.00;99.90
23534;DHT22;11944;50.796;4.322;2022-09-09T04:35:49;15.00;99.90
23534;DHT22;11944;50.796;4.322;2022-09-09T04:38:17;15.00;99.90
23534;DHT22;11944;50.796;4.322;2022-09-09T04:40:46;15.00;99.90
23534;DHT22;11944;50.796;4.322;2022-09-09T04:43:15;15.00;99.90
23534;DHT22;11944;50.796;4.322;2022-09-09T04:45:44;15.00;99.90
23534;DHT22;11944;50.796;4.322;2022-09-09T04:48:12;15.00;99.90
23534;DHT22;11944;50.796;4.322;2022-09-09T04:50:40;15.00;99.90
23534;DHT22;11944;50.796;4.322;2022-09-09T04:53:08;15.10;99.90
23534;DHT22;11944;50.796;4.322;2022-09-09T04:55:36;15.00;99.90
23534;DHT22;11944;50.796;4.322;2022-09-09T04:58:06;15.00;99.90
23534;DHT22;11944;50.796;4.322;2022-09-09T05:00:35;14.90;99.90
23534;DHT22;11944;50.796;4.322;2022-09-09T05:03:04;15.00;99.90
23534;DHT22;11944;50.796;4.322;2022-09-09T05:05:35;15.00;99.90
23534;DHT22;11944;50.796;4.322;2022-09-09T05:08:07;15.00;99.90
23534;DHT22;11944;50.796;4.322;2022-09-09T05:10:37;15.00;99.90
23534;DHT22;11944;50.796;4.322;2022-09-09T05:13:05;15.10;99.90
23534;DHT22;11944;50.796;4.322;2022-09-09T05:15:33;15.20;99.90
23534;DHT22;11944;50.796;4.322;2022-09-09T05:18:02;15.20;99.90
23534;DHT22;11944;50.796;4.322;2022-09-09T05:20:30;15.20;99.90
23534;DHT22;11944;50.796;4.322;2022-09-09T05:22:58;15.30;99.90
23534;DHT22;11944;50.796;4.322;2022-09-09T05:25:25;15.30;99.90
23534;DHT22;11944;50.796;4.322;2022-09-09T05:27:53;15.30;99.90
23534;DHT22;11944;50.796;4.322;2022-09-09T05:30:21;15.30;99.90
23534;DHT22;11944;50.796;4.322;2022-09-09T05:32:51;15.30;99.90
23534;DHT22;11944;50.796;4.322;2022-09-09T05:35:18;15.40;99.90
23534;DHT22;11944;50.796;4.322;2022-09-09T05:37:47;15.40;99.90
23534;DHT22;11944;50.796;4.322;2022-09-09T05:40:14;15.40;99.90
23534;DHT22;11944;50.796;4.322;2022-09-09T05:42:42;15.40;99.90
23534;DHT22;11944;50.796;4.322;2022-09-09T05:45:09;15.50;99.90
23534;DHT22;11944;50.796;4.322;2022-09-09T05:47:38;15.40;99.90
23534;DHT22;11944;50.796;4.322;2022-09-09T05:50:05;15.50;99.90
23534;DHT22;11944;50.796;4.322;2022-09-09T05:52:34;15.50;99.90
23534;DHT22;11944;50.796;4.322;2022-09-09T05:55:01;15.50;99.90
23534;DHT22;11944;50.796;4.322;2022-09-09T05:57:30;15.50;99.90
23534;DHT22;11944;50.796;4.322;2022-09-09T05:59:58;15.50;99.90
23534;DHT22;11944;50.796;4.322;2022-09-09T06:02:26;15.60;99.90
23534;DHT22;11944;50.796;4.322;2022-09-09T06:04:54;15.70;99.90
23534;DHT22;11944;50.796;4.322;2022-09-09T06:07:22;15.80;99.90
23534;DHT22;11944;50.796;4.322;2022-09-09T06:09:50;15.90;99.90
23534;DHT22;11944;50.796;4.322;2022-09-09T06:12:18;16.00;99.90
23534;DHT22;11944;50.796;4.322;2022-09-09T06:14:45;16.00;99.90
23534;DHT22;11944;50.796;4.322;2022-09-09T06:17:13;16.10;99.90
23534;DHT22;11944;50.796;4.322;2022-09-09T06:19:40;16.00;99.90
23534;DHT22;11944;50.796;4.322;2022-09-09T06:22:08;15.90;99.90
23534;DHT22;11944;50.796;4.322;2022-09-09T06:24:37;16.00;99.90
23534;DHT22;11944;50.796;4.322;2022-09-09T06:27:04;16.00;99.90
23534;DHT22;11944;50.796;4.322;2022-09-09T06:29:32;16.10;99.90
23534;DHT22;11944;50.796;4.322;2022-09-09T06:31:59;16.30;99.90
23534;DHT22;11944;50.796;4.322;2022-09-09T06:34:27;16.40;99.90
23534;DHT22;11944;50.796;4.322;2022-09-09T06:36:54;16.20;99.90
23534;DHT22;11944;50.796;4.322;2022-09-09T06:39:24;16.10;99.90
23534;DHT22;11944;50.796;4.322;2022-09-09T06:41:52;16.10;99.90
23534;DHT22;11944;50.796;4.322;2022-09-09T06:44:20;16.10;99.90
23534;DHT22;11944;50.796;4.322;2022-09-09T06:46:49;16.20;99.90
23534;DHT22;11944;50.796;4.322;2022-09-09T06:49:16;16.30;99.90
23534;DHT22;11944;50.796;4.322;2022-09-09T06:51:44;16.20;99.90
23534;DHT22;11944;50.796;4.322;2022-09-09T06:54:13;16.20;99.90
23534;DHT22;11944;50.796;4.322;2022-09-09T06:56:42;16.40;99.90
23534;DHT22;11944;50.796;4.322;2022-09-09T06:59:10;16.70;99.90
23534;DHT22;11944;50.796;4.322;2022-09-09T07:01:40;16.90;99.90
23534;DHT22;11944;50.796;4.322;2022-09-09T07:04:08;16.90;99.90
23534;DHT22;11944;50.796;4.322;2022-09-09T07:06:43;16.60;99.90
23534;DHT22;11944;50.796;4.322;2022-09-09T07:09:12;16.50;99.90
23534;DHT22;11944;50.796;4.322;2022-09-09T07:11:46;16.40;99.90
23534;DHT22;11944;50.796;4.322;2022-09-09T07:14:14;16.50;99.90
23534;DHT22;11944;50.796;4.322;2022-09-09T07:16:44;16.50;99.90
23534;DHT22;11944;50.796;4.322;2022-09-09T07:19:12;16.50;99.90
23534;DHT22;11944;50.796;4.322;2022-09-09T07:21:41;16.50;99.90
23534;DHT22;11944;50.796;4.322;2022-09-09T07:24:09;16.40;99.90
23534;DHT22;11944;50.796;4.322;2022-09-09T07:26:38;16.30;99.90
23534;DHT22;11944;50.796;4.322;2022-09-09T07:29:06;16.30;99.90
23534;DHT22;11944;50.796;4.322;2022-09-09T07:31:36;16.30;99.90
23534;DHT22;11944;50.796;4.322;2022-09-09T07:34:05;16.20;99.90
23534;DHT22;11944;50.796;4.322;2022-09-09T07:36:35;16.20;99.90
23534;DHT22;11944;50.796;4.322;2022-09-09T07:39:07;16.00;99.90
23534;DHT22;11944;50.796;4.322;2022-09-09T07:41:45;16.10;99.90
23534;DHT22;11944;50.796;4.322;2022-09-09T07:44:11;15.90;99.90
23534;DHT22;11944;50.796;4.322;2022-09-09T07:46:39;16.00;99.90
23534;DHT22;11944;50.796;4.322;2022-09-09T07:49:09;16.00;99.90
23534;DHT22;11944;50.796;4.322;2022-09-09T07:51:39;15.90;99.90
23534;DHT22;11944;50.796;4.322;2022-09-09T07:54:08;16.00;99.90
23534;DHT22;11944;50.796;4.322;2022-09-09T07:56:36;16.00;99.90
23534;DHT22;11944;50.796;4.322;2022-09-09T07:59:04;16.10;99.90
23534;DHT22;11944;50.796;4.322;2022-09-09T08:01:40;16.40;99.90
23534;DHT22;11944;50.796;4.322;2022-09-09T08:04:07;16.40;99.90
23534;DHT22;11944;50.796;4.322;2022-09-09T08:06:35;17.00;99.90
23534;DHT22;11944;50.796;4.322;2022-09-09T08:09:06;17.60;99.90
23534;DHT22;11944;50.796;4.322;2022-09-09T08:11:35;18.60;99.90
23534;DHT22;11944;50.796;4.322;2022-09-09T08:14:04;19.50;99.90
23534;DHT22;11944;50.796;4.322;2022-09-09T08:16:34;19.30;99.90
23534;DHT22;11944;50.796;4.322;2022-09-09T08:19:03;19.10;99.90
23534;DHT22;11944;50.796;4.322;2022-09-09T08:21:35;18.70;99.90
23534;DHT22;11944;50.796;4.322;2022-09-09T08:24:04;18.10;99.90
23534;DHT22;11944;50.796;4.322;2022-09-09T08:26:34;18.00;99.90
23534;DHT22;11944;50.796;4.322;2022-09-09T08:29:05;17.90;99.90
23534;DHT22;11944;50.796;4.322;2022-09-09T08:31:38;17.70;99.90
23534;DHT22;11944;50.796;4.322;2022-09-09T08:34:07;17.20;99.90
23534;DHT22;11944;50.796;4.322;2022-09-09T08:36:39;17.10;99.90
23534;DHT22;11944;50.796;4.322;2022-09-09T08:39:08;17.10;99.90
23534;DHT22;11944;50.796;4.322;2022-09-09T08:42:05;16.90;99.90
23534;DHT22;11944;50.796;4.322;2022-09-09T08:45:00;16.90;99.90
23534;DHT22;11944;50.796;4.322;2022-09-09T08:50:32;16.80;99.90
23534;DHT22;11944;50.796;4.322;2022-09-09T08:53:16;16.70;99.90
23534;DHT22;11944;50.796;4.322;2022-09-09T08:56:06;16.80;99.90
23534;DHT22;11944;50.796;4.322;2022-09-09T08:58:33;16.90;99.90
23534;DHT22;11944;50.796;4.322;2022-09-09T09:09:57;17.00;99.90
23534;DHT22;11944;50.796;4.322;2022-09-09T09:12:30;16.90;99.90
23534;DHT22;11944;50.796;4.322;2022-09-09T09:14:59;16.70;99.90
23534;DHT22;11944;50.796;4.322;2022-09-09T09:17:46;16.60;99.90
23534;DHT22;11944;50.796;4.322;2022-09-09T09:20:16;16.50;99.90
23534;DHT22;11944;50.796;4.322;2022-09-09T09:22:47;16.50;99.90
23534;DHT22;11944;50.796;4.322;2022-09-09T09:25:20;16.40;99.90
23534;DHT22;11944;50.796;4.322;2022-09-09T09:28:12;16.40;99.90
23534;DHT22;11944;50.796;4.322;2022-09-09T09:30:44;16.40;99.90
23534;DHT22;11944;50.796;4.322;2022-09-09T09:35:45;16.30;99.90
23534;DHT22;11944;50.796;4.322;2022-09-09T09:38:25;16.20;99.90
23534;DHT22;11944;50.796;4.322;2022-09-09T09:40:56;16.30;99.90
23534;DHT22;11944;50.796;4.322;2022-09-09T09:43:28;16.50;99.90
23534;DHT22;11944;50.796;4.322;2022-09-09T09:45:51;16.50;99.90
23534;DHT22;11944;50.796;4.322;2022-09-09T09:48:19;16.50;99.90
23534;DHT22;11944;50.796;4.322;2022-09-09T09:50:52;16.50;99.90
23534;DHT22;11944;50.796;4.322;2022-09-09T09:53:34;16.50;99.90
23534;DHT22;11944;50.796;4.322;2022-09-09T09:56:08;16.50;99.90
23534;DHT22;11944;50.796;4.322;2022-09-09T09:58:59;16.50;99.90
23534;DHT22;11944;50.796;4.322;2022-09-09T10:01:18;16.40;99.90
23534;DHT22;11944;50.796;4.322;2022-09-09T10:03:37;16.50;99.90
23534;DHT22;11944;50.796;4.322;2022-09-09T10:06:06;16.60;99.90
23534;DHT22;11944;50.796;4.322;2022-09-09T10:08:44;16.70;99.90
23534;DHT22;11944;50.796;4.322;2022-09-09T10:14:28;16.60;99.90
23534;DHT22;11944;50.796;4.322;2022-09-09T10:19:33;16.40;99.90
23534;DHT22;11944;50.796;4.322;2022-09-09T10:30:48;16.90;99.90
23534;DHT22;11944;50.796;4.322;2022-09-09T10:33:44;17.20;99.90
23534;DHT22;11944;50.796;4.322;2022-09-09T10:41:32;17.40;99.90
23534;DHT22;11944;50.796;4.322;2022-09-09T10:44:21;17.30;99.90
23534;DHT22;11944;50.796;4.322;2022-09-09T10:49:42;17.70;99.90
23534;DHT22;11944;50.796;4.322;2022-09-09T10:57:03;17.90;99.90
23534;DHT22;11944;50.796;4.322;2022-09-09T10:59:38;17.80;99.90
23534;DHT22;11944;50.796;4.322;2022-09-09T11:07:12;17.90;99.90
23534;DHT22;11944;50.796;4.322;2022-09-09T11:09:43;18.00;99.90
23534;DHT22;11944;50.796;4.322;2022-09-09T11:12:12;18.10;99.90
23534;DHT22;11944;50.796;4.322;2022-09-09T11:14:43;18.20;99.90
23534;DHT22;11944;50.796;4.322;2022-09-09T11:17:23;18.30;99.90
23534;DHT22;11944;50.796;4.322;2022-09-09T11:19:51;18.50;99.90
23534;DHT22;11944;50.796;4.322;2022-09-09T11:22:30;18.60;99.90
23534;DHT22;11944;50.796;4.322;2022-09-09T11:25:01;18.50;99.90
23534;DHT22;11944;50.796;4.322;2022-09-09T11:27:51;18.20;99.90
23534;DHT22;11944;50.796;4.322;2022-09-09T11:30:19;18.20;99.90
23534;DHT22;11944;50.796;4.322;2022-09-09T11:38:32;18.30;99.90
23534;DHT22;11944;50.796;4.322;2022-09-09T11:41:05;18.20;99.90
23534;DHT22;11944;50.796;4.322;2022-09-09T11:43:45;18.00;99.90
23534;DHT22;11944;50.796;4.322;2022-09-09T11:46:15;18.10;99.90
23534;DHT22;11944;50.796;4.322;2022-09-09T11:48:56;18.10;99.90
23534;DHT22;11944;50.796;4.322;2022-09-09T11:51:26;18.20;99.90
23534;DHT22;11944;50.796;4.322;2022-09-09T11:54:29;18.20;99.90
23534;DHT22;11944;50.796;4.322;2022-09-09T11:56:58;18.10;99.90
23534;DHT22;11944;50.796;4.322;2022-09-09T11:59:32;18.10;99.90
23534;DHT22;11944;50.796;4.322;2022-09-09T12:02:12;17.90;99.90
23534;DHT22;11944;50.796;4.322;2022-09-09T12:04:42;17.80;99.90
23534;DHT22;11944;50.796;4.322;2022-09-09T12:10:03;18.00;99.90
23534;DHT22;11944;50.796;4.322;2022-09-09T12:12:36;17.90;99.90
23534;DHT22;11944;50.796;4.322;2022-09-09T12:17:52;18.00;99.90
23534;DHT22;11944;50.796;4.322;2022-09-09T12:20:31;18.00;99.90
23534;DHT22;11944;50.796;4.322;2022-09-09T12:23:23;18.00;99.90
23534;DHT22;11944;50.796;4.322;2022-09-09T12:28:46;18.20;99.90
23534;DHT22;11944;50.796;4.322;2022-09-09T12:31:05;18.30;99.90
23534;DHT22;11944;50.796;4.322;2022-09-09T12:33:36;18.40;99.90
23534;DHT22;11944;50.796;4.322;2022-09-09T12:36:04;18.40;99.90
23534;DHT22;11944;50.796;4.322;2022-09-09T12:38:37;18.40;99.90
23534;DHT22;11944;50.796;4.322;2022-09-09T12:41:04;18.60;99.90
23534;DHT22;11944;50.796;4.322;2022-09-09T12:43:32;18.80;99.90
23534;DHT22;11944;50.796;4.322;2022-09-09T12:46:03;18.80;99.90
23534;DHT22;11944;50.796;4.322;2022-09-09T12:48:39;19.10;99.90
23534;DHT22;11944;50.796;4.322;2022-09-09T12:51:07;19.10;99.90
23534;DHT22;11944;50.796;4.322;2022-09-09T12:53:38;19.30;99.90
23534;DHT22;11944;50.796;4.322;2022-09-09T12:56:18;19.20;99.90
23534;DHT22;11944;50.796;4.322;2022-09-09T12:58:44;19.00;99.90
23534;DHT22;11944;50.796;4.322;2022-09-09T13:01:18;18.80;99.90
23534;DHT22;11944;50.796;4.322;2022-09-09T13:03:43;18.80;99.90
23534;DHT22;11944;50.796;4.322;2022-09-09T13:06:16;18.80;99.90
23534;DHT22;11944;50.796;4.322;2022-09-09T13:08:43;18.90;99.90
23534;DHT22;11944;50.796;4.322;2022-09-09T13:11:13;19.00;99.90
23534;DHT22;11944;50.796;4.322;2022-09-09T13:13:42;18.90;99.90
23534;DHT22;11944;50.796;4.322;2022-09-09T13:16:31;18.90;99.90
23534;DHT22;11944;50.796;4.322;2022-09-09T13:19:10;19.00;99.90
23534;DHT22;11944;50.796;4.322;2022-09-09T13:21:39;19.00;99.90
23534;DHT22;11944;50.796;4.322;2022-09-09T13:24:26;19.40;99.90
23534;DHT22;11944;50.796;4.322;2022-09-09T13:27:04;19.80;99.90
23534;DHT22;11944;50.796;4.322;2022-09-09T13:29:32;20.10;99.90
23534;DHT22;11944;50.796;4.322;2022-09-09T13:32:17;20.00;99.90
23534;DHT22;11944;50.796;4.322;2022-09-09T13:34:59;19.90;99.90
23534;DHT22;11944;50.796;4.322;2022-09-09T13:37:31;20.10;99.90
23534;DHT22;11944;50.796;4.322;2022-09-09T13:39:57;20.10;99.90
23534;DHT22;11944;50.796;4.322;2022-09-09T13:42:32;20.10;99.90
23534;DHT22;11944;50.796;4.322;2022-09-09T13:45:02;20.20;99.90
23534;DHT22;11944;50.796;4.322;2022-09-09T13:47:35;20.40;99.90
23534;DHT22;11944;50.796;4.322;2022-09-09T13:50:23;20.60;99.90
23534;DHT22;11944;50.796;4.322;2022-09-09T13:52:55;20.30;99.90
23534;DHT22;11944;50.796;4.322;2022-09-09T13:55:26;19.80;99.90
23534;DHT22;11944;50.796;4.322;2022-09-09T13:58:02;19.70;99.90
23534;DHT22;11944;50.796;4.322;2022-09-09T14:00:33;19.60;99.90
23534;DHT22;11944;50.796;4.322;2022-09-09T14:03:01;19.70;99.90
23534;DHT22;11944;50.796;4.322;2022-09-09T14:05:31;19.80;99.90
23534;DHT22;11944;50.796;4.322;2022-09-09T14:08:00;19.80;99.90
23534;DHT22;11944;50.796;4.322;2022-09-09T14:10:28;19.80;99.90
23534;DHT22;11944;50.796;4.322;2022-09-09T14:12:55;19.50;99.90
23534;DHT22;11944;50.796;4.322;2022-09-09T14:15:23;19.40;99.90
23534;DHT22;11944;50.796;4.322;2022-09-09T14:17:50;19.30;99.90
23534;DHT22;11944;50.796;4.322;2022-09-09T14:20:18;19.20;99.90
23534;DHT22;11944;50.796;4.322;2022-09-09T14:22:46;19.20;99.90
23534;DHT22;11944;50.796;4.322;2022-09-09T14:25:13;19.30;99.90
23534;DHT22;11944;50.796;4.322;2022-09-09T14:27:41;19.30;99.90
23534;DHT22;11944;50.796;4.322;2022-09-09T14:30:10;19.50;99.90
23534;DHT22;11944;50.796;4.322;2022-09-09T14:32:37;19.80;99.90
23534;DHT22;11944;50.796;4.322;2022-09-09T14:35:05;20.00;99.90
23534;DHT22;11944;50.796;4.322;2022-09-09T14:37:33;20.00;99.90
23534;DHT22;11944;50.796;4.322;2022-09-09T14:40:01;20.00;99.90
23534;DHT22;11944;50.796;4.322;2022-09-09T14:42:28;19.80;99.90
23534;DHT22;11944;50.796;4.322;2022-09-09T14:44:56;19.70;99.90
23534;DHT22;11944;50.796;4.322;2022-09-09T14:47:24;19.70;99.90
23534;DHT22;11944;50.796;4.322;2022-09-09T14:49:52;19.90;99.90
23534;DHT22;11944;50.796;4.322;2022-09-09T14:52:20;20.20;99.90
23534;DHT22;11944;50.796;4.322;2022-09-09T14:54:47;20.20;99.90
23534;DHT22;11944;50.796;4.322;2022-09-09T14:57:15;20.20;99.90
23534;DHT22;11944;50.796;4.322;2022-09-09T15:00:03;20.10;99.90
23534;DHT22;11944;50.796;4.322;2022-09-09T15:02:31;20.00;99.90
23534;DHT22;11944;50.796;4.322;2022-09-09T15:04:59;19.90;99.90
23534;DHT22;11944;50.796;4.322;2022-09-09T15:07:28;20.00;99.90
23534;DHT22;11944;50.796;4.322;2022-09-09T15:09:55;20.00;99.90
23534;DHT22;11944;50.796;4.322;2022-09-09T15:12:23;20.10;99.90
23534;DHT22;11944;50.796;4.322;2022-09-09T15:14:51;20.20;99.90
23534;DHT22;11944;50.796;4.322;2022-09-09T15:17:20;20.20;99.90
23534;DHT22;11944;50.796;4.322;2022-09-09T15:19:48;20.10;99.90
23534;DHT22;11944;50.796;4.322;2022-09-09T15:22:16;20.10;99.90
23534;DHT22;11944;50.796;4.322;2022-09-09T15:24:44;19.90;99.90
23534;DHT22;11944;50.796;4.322;2022-09-09T15:27:11;19.80;99.90
23534;DHT22;11944;50.796;4.322;2022-09-09T15:29:41;19.70;99.90
23534;DHT22;11944;50.796;4.322;2022-09-09T15:32:10;19.70;99.90
23534;DHT22;11944;50.796;4.322;2022-09-09T15:34:38;19.50;99.90
23534;DHT22;11944;50.796;4.322;2022-09-09T15:37:06;19.50;99.90
23534;DHT22;11944;50.796;4.322;2022-09-09T15:39:33;19.50;99.90
23534;DHT22;11944;50.796;4.322;2022-09-09T15:42:01;19.50;99.90
23534;DHT22;11944;50.796;4.322;2022-09-09T15:44:28;19.50;99.90
23534;DHT22;11944;50.796;4.322;2022-09-09T15:46:56;19.60;99.90
23534;DHT22;11944;50.796;4.322;2022-09-09T15:49:25;19.60;99.90
23534;DHT22;11944;50.796;4.322;2022-09-09T15:51:55;19.80;99.90
23534;DHT22;11944;50.796;4.322;2022-09-09T15:54:25;19.80;99.90
23534;DHT22;11944;50.796;4.322;2022-09-09T15:57:12;19.90;99.90
23534;DHT22;11944;50.796;4.322;2022-09-09T15:59:40;19.80;99.90
23534;DHT22;11944;50.796;4.322;2022-09-09T16:02:09;19.70;99.90
23534;DHT22;11944;50.796;4.322;2022-09-09T16:04:37;19.50;99.90
23534;DHT22;11944;50.796;4.322;2022-09-09T16:07:05;19.40;99.90
23534;DHT22;11944;50.796;4.322;2022-09-09T16:09:33;19.30;99.90
23534;DHT22;11944;50.796;4.322;2022-09-09T16:12:02;19.20;99.90
23534;DHT22;11944;50.796;4.322;2022-09-09T16:14:35;19.20;99.90
23534;DHT22;11944;50.796;4.322;2022-09-09T16:17:04;19.20;99.90
23534;DHT22;11944;50.796;4.322;2022-09-09T16:19:32;19.20;99.90
23534;DHT22;11944;50.796;4.322;2022-09-09T16:22:02;19.00;99.90
23534;DHT22;11944;50.796;4.322;2022-09-09T16:24:30;18.10;99.90
23534;DHT22;11944;50.796;4.322;2022-09-09T16:26:58;17.50;99.90
23534;DHT22;11944;50.796;4.322;2022-09-09T16:29:25;17.20;99.90
23534;DHT22;11944;50.796;4.322;2022-09-09T16:31:54;17.10;99.90
23534;DHT22;11944;50.796;4.322;2022-09-09T16:34:22;17.20;99.90
23534;DHT22;11944;50.796;4.322;2022-09-09T16:36:49;17.20;99.90
23534;DHT22;11944;50.796;4.322;2022-09-09T16:39:19;17.20;99.90
23534;DHT22;11944;50.796;4.322;2022-09-09T16:41:47;17.10;99.90
23534;DHT22;11944;50.796;4.322;2022-09-09T16:44:17;17.20;99.90
23534;DHT22;11944;50.796;4.322;2022-09-09T16:46:46;17.20;99.90
23534;DHT22;11944;50.796;4.322;2022-09-09T16:49:16;17.10;99.90
23534;DHT22;11944;50.796;4.322;2022-09-09T16:51:50;17.00;99.90
23534;DHT22;11944;50.796;4.322;2022-09-09T16:54:15;17.00;99.90
23534;DHT22;11944;50.796;4.322;2022-09-09T16:56:46;17.10;99.90
23534;DHT22;11944;50.796;4.322;2022-09-09T16:59:16;17.10;99.90
23534;DHT22;11944;50.796;4.322;2022-09-09T17:01:56;17.00;99.90
23534;DHT22;11944;50.796;4.322;2022-09-09T17:04:26;17.10;99.90
23534;DHT22;11944;50.796;4.322;2022-09-09T17:06:54;17.30;99.90
23534;DHT22;11944;50.796;4.322;2022-09-09T17:09:25;17.50;99.90
23534;DHT22;11944;50.796;4.322;2022-09-09T17:11:57;17.50;99.90
23534;DHT22;11944;50.796;4.322;2022-09-09T17:14:25;17.30;99.90
23534;DHT22;11944;50.796;4.322;2022-09-09T17:16:52;17.00;99.90
23534;DHT22;11944;50.796;4.322;2022-09-09T17:19:20;16.80;99.90
23534;DHT22;11944;50.796;4.322;2022-09-09T17:21:47;16.60;99.90
23534;DHT22;11944;50.796;4.322;2022-09-09T17:24:15;16.40;99.90
23534;DHT22;11944;50.796;4.322;2022-09-09T17:26:43;16.50;99.90
23534;DHT22;11944;50.796;4.322;2022-09-09T17:29:11;16.40;99.90